createdAt,value
2019-01-06T00:00:41.298Z,100.00
2019-01-06T00:03:40.614Z,100.00
2019-01-06T00:06:28.909Z,100.00
2019-01-06T00:09:19.546Z,100.00
2019-01-06T00:12:08.939Z,100.00
2019-01-06T00:15:10.934Z,100.00
2019-01-06T00:18:00.238Z,100.00
2019-01-06T00:20:49.089Z,100.00
2019-01-06T00:23:38.037Z,100.00
2019-01-06T00:26:42.649Z,100.00
2019-01-06T00:29:47.775Z,100.00
2019-01-06T00:32:40.454Z,100.00
2019-01-06T00:35:51.166Z,100.00
2019-01-06T00:41:58.698Z,100.00
2019-01-06T00:44:50.579Z,100.00
2019-01-06T00:47:39.570Z,100.00
2019-01-06T00:50:30.790Z,100.00
2019-01-06T00:53:25.648Z,100.00
2019-01-06T00:56:18.794Z,100.00
2019-01-06T00:59:09.176Z,100.00
2019-01-06T01:02:02.412Z,100.00
2019-01-06T01:04:53.362Z,100.00
2019-01-06T01:07:45.427Z,100.00
2019-01-06T01:10:43.725Z,100.00
2019-01-06T01:13:36.115Z,100.00
2019-01-06T01:16:39.376Z,100.00
2019-01-06T01:19:28.550Z,100.00
2019-01-06T01:22:17.539Z,100.00
2019-01-06T01:25:38.176Z,100.00
2019-01-06T01:28:34.549Z,100.00
2019-01-06T01:31:20.883Z,100.00
2019-01-06T01:34:07.796Z,100.00
2019-01-06T01:37:15.923Z,100.00
2019-01-06T01:40:18.461Z,100.00
2019-01-06T01:43:18.475Z,100.00
2019-01-06T01:46:27.474Z,100.00
2019-01-06T01:49:17.230Z,100.00
2019-01-06T01:52:08.751Z,100.00
2019-01-06T01:54:58.923Z,100.00
2019-01-06T01:58:00.801Z,100.00
2019-01-06T02:01:07.533Z,100.00
2019-01-06T02:04:12.951Z,100.00
2019-01-06T02:07:21.340Z,100.00
2019-01-06T02:10:10.146Z,100.00
2019-01-06T02:12:59.287Z,100.00
2019-01-06T02:15:49.524Z,100.00
2019-01-06T02:18:38.504Z,100.00
2019-01-06T02:21:27.426Z,100.00
2019-01-06T02:24:19.732Z,100.00
2019-01-06T02:27:22.090Z,100.00
2019-01-06T02:30:24.531Z,100.00
2019-01-06T02:33:13.589Z,100.00
2019-01-06T02:36:14.346Z,100.00
2019-01-06T02:39:10.478Z,100.00
2019-01-06T02:42:18.766Z,100.00
2019-01-06T02:45:04.941Z,100.00
2019-01-06T02:47:53.541Z,100.00
2019-01-06T02:50:43.796Z,100.00
2019-01-06T02:53:32.726Z,100.00
2019-01-06T02:56:22.329Z,100.00
2019-01-06T02:59:15.314Z,100.00
2019-01-06T03:02:04.382Z,100.00
2019-01-06T03:04:57.762Z,100.00
2019-01-06T03:07:57.057Z,100.00
2019-01-06T03:10:46.086Z,100.00
2019-01-06T03:13:54.607Z,100.00
2019-01-06T03:16:40.498Z,100.00
2019-01-06T03:19:33.727Z,100.00
2019-01-06T03:22:39.258Z,100.00
2019-01-06T03:25:35.576Z,100.00
2019-01-06T03:28:28.619Z,100.00
2019-01-06T03:31:17.534Z,100.00
2019-01-06T03:34:13.890Z,100.00
2019-01-06T03:37:02.711Z,100.00
2019-01-06T03:40:07.471Z,100.00
2019-01-06T03:42:57.703Z,100.00
2019-01-06T03:45:50.237Z,100.00
2019-01-06T03:48:40.550Z,100.00
2019-01-06T03:51:29.626Z,100.00
2019-01-06T03:54:18.775Z,100.00
2019-01-06T03:57:10.806Z,100.00
2019-01-06T04:00:01.766Z,100.00
2019-01-06T04:02:51.131Z,100.00
2019-01-06T04:05:56.599Z,100.00
2019-01-06T04:08:45.547Z,100.00
2019-01-06T04:11:34.523Z,100.00
2019-01-06T04:14:23.381Z,100.00
2019-01-06T04:17:12.453Z,100.00
2019-01-06T04:20:01.371Z,100.00
2019-01-06T04:22:50.277Z,100.00
2019-01-06T04:25:38.973Z,100.00
2019-01-06T04:28:47.566Z,100.00
2019-01-06T04:31:37.765Z,100.00
2019-01-06T04:34:26.318Z,100.00
2019-01-06T04:37:34.989Z,100.00
2019-01-06T04:40:33.978Z,100.00
2019-01-06T04:43:17.505Z,100.00
2019-01-06T04:46:07.729Z,100.00
2019-01-06T04:48:57.296Z,100.00
2019-01-06T04:51:45.995Z,100.00
2019-01-06T04:54:35.125Z,100.00
2019-01-06T04:57:24.330Z,100.00
2019-01-06T05:00:13.246Z,100.00
2019-01-06T05:03:08.809Z,100.00
2019-01-06T05:05:54.233Z,100.00
2019-01-06T05:08:47.914Z,100.00
2019-01-06T05:11:41.081Z,100.00
2019-01-06T05:14:46.538Z,100.00
2019-01-06T05:17:35.423Z,100.00
2019-01-06T05:20:26.998Z,100.00
2019-01-06T05:23:23.401Z,100.00
2019-01-06T05:26:22.610Z,100.00
2019-01-06T05:29:12.829Z,100.00
2019-01-06T05:32:03.069Z,100.00
2019-01-06T05:34:53.253Z,100.00
2019-01-06T05:37:52.575Z,100.00
2019-01-06T05:40:41.434Z,100.00
2019-01-06T05:43:34.830Z,100.00
2019-01-06T05:46:23.660Z,100.00
2019-01-06T05:49:13.967Z,100.00
2019-01-06T05:52:02.681Z,100.00
2019-01-06T05:54:51.769Z,100.00
2019-01-06T05:57:44.944Z,100.00
2019-01-06T06:00:35.245Z,100.00
2019-01-06T06:03:26.594Z,100.00
2019-01-06T06:06:15.767Z,100.00
2019-01-06T06:09:10.703Z,100.00
2019-01-06T06:12:13.319Z,100.00
2019-01-06T06:15:02.301Z,100.00
2019-01-06T06:17:51.558Z,100.00
2019-01-06T06:20:33.143Z,100.00
2019-01-06T06:23:30.980Z,100.00
2019-01-06T06:26:27.208Z,100.00
2019-01-06T06:29:16.118Z,100.00
2019-01-06T06:32:05.281Z,100.00
2019-01-06T06:35:04.918Z,100.00
2019-01-06T06:37:57.857Z,100.00
2019-01-06T06:40:49.991Z,100.00
2019-01-06T06:43:46.369Z,100.00
2019-01-06T06:46:36.796Z,100.00
2019-01-06T06:49:25.684Z,100.00
2019-01-06T06:52:14.729Z,100.00
2019-01-06T06:55:03.857Z,100.00
2019-01-06T06:58:45.797Z,100.00
2019-01-06T07:02:18.262Z,100.00
2019-01-06T07:05:07.319Z,100.00
2019-01-06T07:07:54.501Z,100.00
2019-01-06T07:10:59.768Z,100.00
2019-01-06T07:14:08.169Z,100.00
2019-01-06T07:17:36.340Z,100.00
2019-01-06T07:20:33.069Z,100.00
2019-01-06T07:23:29.230Z,100.00
2019-01-06T07:26:18.277Z,100.00
2019-01-06T07:29:26.928Z,100.00
2019-01-06T07:32:29.436Z,100.00
2019-01-06T07:35:18.250Z,100.00
2019-01-06T07:38:08.620Z,100.00
2019-01-06T07:41:13.933Z,100.00
2019-01-06T07:44:04.256Z,100.00
2019-01-06T07:46:53.370Z,100.00
2019-01-06T07:49:50.187Z,100.00
2019-01-06T07:52:52.648Z,100.00
2019-01-06T07:55:48.946Z,100.00
2019-01-06T07:58:37.933Z,100.00
2019-01-06T08:01:46.492Z,100.00
2019-01-06T08:04:36.454Z,100.00
2019-01-06T08:07:29.819Z,100.00
2019-01-06T08:10:19.951Z,100.00
2019-01-06T08:13:01.631Z,100.00
2019-01-06T08:15:52.396Z,100.00
2019-01-06T08:18:54.557Z,100.00
2019-01-06T08:22:05.997Z,100.00
2019-01-06T08:24:54.873Z,100.00
2019-01-06T08:27:50.937Z,100.00
2019-01-06T08:30:39.892Z,100.00
2019-01-06T08:33:39.947Z,100.00
2019-01-06T08:36:28.656Z,100.00
2019-01-06T08:39:18.878Z,100.00
2019-01-06T08:42:07.871Z,99.95
2019-01-06T08:45:15.803Z,99.46
2019-01-06T08:48:04.821Z,99.46
2019-01-06T08:50:54.285Z,97.65
2019-01-06T08:53:47.683Z,97.81
2019-01-06T08:56:36.537Z,94.85
2019-01-06T08:59:23.624Z,94.70
2019-01-06T09:02:12.643Z,93.80
2019-01-06T09:05:21.138Z,94.50
2019-01-06T09:08:17.189Z,93.28
2019-01-06T09:11:26.004Z,92.12
2019-01-06T09:14:25.272Z,92.97
2019-01-06T09:17:14.225Z,93.66
2019-01-06T09:20:03.130Z,94.57
2019-01-06T09:22:56.211Z,95.09
2019-01-06T09:26:00.011Z,94.64
2019-01-06T09:28:56.264Z,94.52
2019-01-06T09:31:46.569Z,95.91
2019-01-06T09:34:42.979Z,97.89
2019-01-06T09:37:40.150Z,98.29
2019-01-06T09:40:36.435Z,98.77
2019-01-06T09:43:25.301Z,98.66
2019-01-06T09:46:14.169Z,99.66
2019-01-06T09:49:10.258Z,98.35
2019-01-06T09:52:01.422Z,98.42
2019-01-06T09:55:03.997Z,97.85
2019-01-06T09:57:54.341Z,98.10
2019-01-06T10:00:43.446Z,98.75
2019-01-06T10:03:52.120Z,98.27
2019-01-06T10:06:48.540Z,100.00
2019-01-06T10:09:37.554Z,100.00
2019-01-06T10:12:27.661Z,98.13
2019-01-06T10:15:26.182Z,97.27
2019-01-06T10:18:19.720Z,96.14
2019-01-06T10:21:16.128Z,95.44
2019-01-06T10:24:06.132Z,95.85
2019-01-06T10:27:01.012Z,94.56
2019-01-06T10:30:03.306Z,96.76
2019-01-06T10:32:59.071Z,97.12
2019-01-06T10:35:49.486Z,96.74
2019-01-06T10:38:52.618Z,97.58
2019-01-06T10:41:49.372Z,98.42
2019-01-06T10:44:54.749Z,97.65
2019-01-06T10:47:52.422Z,97.73
2019-01-06T10:50:50.092Z,96.57
2019-01-06T10:53:52.556Z,96.99
2019-01-06T10:56:41.759Z,97.63
2019-01-06T10:59:30.866Z,96.62
2019-01-06T11:02:33.577Z,95.15
2019-01-06T11:05:22.842Z,95.57
2019-01-06T11:08:11.711Z,96.25
2019-01-06T11:11:00.999Z,96.98
2019-01-06T11:14:00.673Z,96.56
2019-01-06T11:16:49.621Z,96.75
2019-01-06T11:19:39.964Z,96.83
2019-01-06T11:22:28.915Z,97.08
2019-01-06T11:25:18.215Z,100.00
2019-01-06T11:28:07.015Z,100.00
2019-01-06T11:30:55.878Z,100.00
2019-01-06T11:34:04.443Z,100.00
2019-01-06T11:36:51.641Z,100.00
2019-01-06T11:39:42.988Z,100.00
2019-01-06T11:42:46.071Z,100.00
2019-01-06T11:45:35.169Z,100.00
2019-01-06T11:48:33.705Z,100.00
2019-01-06T11:51:22.775Z,100.00
2019-01-06T11:54:31.999Z,100.00
2019-01-06T11:57:21.480Z,100.00
2019-01-06T12:00:18.619Z,100.00
2019-01-06T12:03:13.367Z,100.00
2019-01-06T12:06:02.752Z,100.00
2019-01-06T12:09:01.127Z,100.00
2019-01-06T12:12:04.669Z,100.00
2019-01-06T12:14:56.107Z,100.00
2019-01-06T12:17:55.269Z,100.00
2019-01-06T12:20:44.073Z,100.00
2019-01-06T12:23:36.001Z,100.00
2019-01-06T12:26:31.146Z,100.00
2019-01-06T12:29:30.348Z,100.00
2019-01-06T12:32:26.897Z,100.00
2019-01-06T12:35:29.353Z,100.00
2019-01-06T12:38:20.085Z,100.00
2019-01-06T12:41:09.113Z,100.00
2019-01-06T12:43:57.973Z,100.00
2019-01-06T12:46:47.190Z,100.00
2019-01-06T12:49:38.298Z,100.00
2019-01-06T12:52:37.533Z,100.00
2019-01-06T12:55:29.518Z,100.00
2019-01-06T12:58:20.892Z,100.00
2019-01-06T13:01:17.279Z,100.00
2019-01-06T13:04:19.578Z,100.00
2019-01-06T13:07:08.584Z,100.00
2019-01-06T13:10:05.148Z,100.00
2019-01-06T13:13:13.827Z,100.00
2019-01-06T13:16:07.964Z,100.00
2019-01-06T13:18:58.215Z,100.00
2019-01-06T13:21:56.068Z,100.00
2019-01-06T13:24:55.801Z,100.00
2019-01-06T13:27:44.872Z,100.00
2019-01-06T13:30:35.064Z,100.00
2019-01-06T13:33:28.273Z,100.00
2019-01-06T13:36:18.051Z,100.00
2019-01-06T13:39:13.493Z,100.00
2019-01-06T13:42:21.755Z,100.00
2019-01-06T13:45:22.990Z,100.00
2019-01-06T13:48:22.399Z,100.00
2019-01-06T13:51:11.202Z,100.00
2019-01-06T13:54:07.563Z,100.00
2019-01-06T13:56:56.369Z,100.00
2019-01-06T13:59:55.454Z,100.00
2019-01-06T14:02:57.788Z,100.00
2019-01-06T14:05:46.794Z,100.00
2019-01-06T14:08:35.814Z,100.00
2019-01-06T14:11:24.946Z,100.00
2019-01-06T14:14:21.132Z,100.00
2019-01-06T14:17:11.322Z,100.00
2019-01-06T14:20:00.980Z,100.00
2019-01-06T14:22:53.186Z,100.00
2019-01-06T14:26:10.366Z,100.00
2019-01-06T14:28:59.260Z,100.00
2019-01-06T14:31:49.528Z,100.00
2019-01-06T14:34:38.239Z,100.00
2019-01-06T14:37:27.387Z,100.00
2019-01-06T14:40:18.566Z,100.00
2019-01-06T14:43:08.900Z,100.00
2019-01-06T14:45:59.221Z,100.00
2019-01-06T14:48:47.621Z,100.00
2019-01-06T14:51:31.701Z,100.00
2019-01-06T14:54:34.008Z,100.00
2019-01-06T14:57:33.566Z,100.00
2019-01-06T15:00:32.061Z,100.00
2019-01-06T15:03:34.830Z,100.00
2019-01-06T15:06:40.075Z,100.00
2019-01-06T15:09:30.242Z,100.00
2019-01-06T15:12:23.616Z,100.00
2019-01-06T15:15:11.167Z,100.00
2019-01-06T15:18:02.578Z,100.00
2019-01-06T15:21:05.113Z,100.00
2019-01-06T15:23:50.121Z,100.00
2019-01-06T15:26:46.572Z,100.00
2019-01-06T15:29:51.710Z,100.00
2019-01-06T15:32:41.684Z,100.00
2019-01-06T15:35:44.077Z,100.00
2019-01-06T15:38:25.692Z,100.00
2019-01-06T15:41:17.707Z,100.00
2019-01-06T15:44:09.606Z,100.00
2019-01-06T15:47:05.783Z,100.00
2019-01-06T15:50:11.226Z,100.00
2019-01-06T15:53:16.434Z,100.00
2019-01-06T15:56:06.630Z,100.00
2019-01-06T15:59:02.788Z,100.00
2019-01-06T16:01:52.302Z,100.00
2019-01-06T16:04:51.944Z,100.00
2019-01-06T16:07:45.251Z,100.00
2019-01-06T16:10:35.507Z,100.00
2019-01-06T16:13:31.849Z,100.00
2019-01-06T16:16:28.124Z,100.00
2019-01-06T16:19:18.480Z,100.00
2019-01-06T16:22:08.752Z,100.00
2019-01-06T16:24:57.180Z,100.00
2019-01-06T16:27:59.498Z,100.00
2019-01-06T16:30:55.593Z,100.00
2019-01-06T16:33:55.226Z,100.00
2019-01-06T16:37:00.547Z,100.00
2019-01-06T16:39:50.908Z,100.00
2019-01-06T16:42:39.873Z,100.00
2019-01-06T16:45:28.783Z,100.00
2019-01-06T16:48:17.609Z,100.00
2019-01-06T16:51:10.581Z,100.00
2019-01-06T16:54:10.020Z,100.00
2019-01-06T16:56:58.647Z,100.00
2019-01-06T16:59:58.003Z,100.00
2019-01-06T17:03:03.563Z,100.00
2019-01-06T17:05:56.889Z,100.00
2019-01-06T17:08:39.108Z,100.00
2019-01-06T17:11:35.510Z,100.00
2019-01-06T17:14:22.854Z,100.00
2019-01-06T17:17:21.990Z,100.00
2019-01-06T17:20:21.677Z,100.00
2019-01-06T17:23:17.887Z,100.00
2019-01-06T17:26:14.074Z,100.00
2019-01-06T17:29:03.210Z,100.00
2019-01-06T17:31:56.525Z,100.00
2019-01-06T17:34:49.701Z,100.00
2019-01-06T17:37:42.965Z,100.00
2019-01-06T17:40:36.293Z,100.00
2019-01-06T17:43:26.562Z,100.00
2019-01-06T17:46:25.801Z,100.00
2019-01-06T17:49:19.131Z,100.00
2019-01-06T17:52:20.445Z,100.00
2019-01-06T17:55:09.416Z,100.00
2019-01-06T17:58:05.672Z,100.00
2019-01-06T18:00:49.341Z,100.00
2019-01-06T18:03:41.741Z,100.00
2019-01-06T18:06:40.871Z,100.00
2019-01-06T18:09:36.347Z,100.00
2019-01-06T18:12:29.254Z,100.00
2019-01-06T18:15:31.837Z,100.00
2019-01-06T18:18:20.887Z,100.00
2019-01-06T18:21:09.827Z,100.00
2019-01-06T18:24:12.476Z,100.00
2019-01-06T18:27:08.650Z,100.00
2019-01-06T18:30:14.254Z,100.00
2019-01-06T18:32:59.416Z,100.00
2019-01-06T18:35:48.283Z,100.00
2019-01-06T18:38:37.245Z,100.00
2019-01-06T18:41:30.568Z,100.00
2019-01-06T18:44:27.954Z,100.00
2019-01-06T18:47:15.270Z,100.00
2019-01-06T18:50:08.598Z,100.00
2019-01-06T18:52:57.663Z,100.00
2019-01-06T18:56:06.365Z,100.00
2019-01-06T18:59:02.577Z,100.00
2019-01-06T19:01:58.875Z,100.00
2019-01-06T19:05:01.510Z,100.00
2019-01-06T19:07:48.171Z,100.00
2019-01-06T19:10:36.913Z,100.00
2019-01-06T19:13:25.983Z,100.00
2019-01-06T19:16:14.975Z,100.00
2019-01-06T19:19:03.817Z,100.00
2019-01-06T19:22:01.752Z,100.00
2019-01-06T19:24:58.119Z,100.00
2019-01-06T19:27:47.157Z,100.00
2019-01-06T19:30:49.525Z,100.00
2019-01-06T19:33:42.575Z,100.00
2019-01-06T19:36:31.250Z,100.00
2019-01-06T19:39:27.430Z,100.00
2019-01-06T19:42:33.614Z,100.00
2019-01-06T19:45:23.885Z,100.00
2019-01-06T19:48:14.090Z,100.00
2019-01-06T19:51:03.182Z,100.00
2019-01-06T19:53:52.089Z,100.00
2019-01-06T19:57:00.419Z,100.00
2019-01-06T20:00:06.396Z,100.00
2019-01-06T20:02:59.363Z,100.00
2019-01-06T20:05:46.976Z,100.00
2019-01-06T20:08:35.991Z,100.00
2019-01-06T20:11:38.379Z,100.00
2019-01-06T20:14:46.949Z,100.00
2019-01-06T20:17:37.080Z,100.00
2019-01-06T20:20:24.871Z,100.00
2019-01-06T20:23:22.806Z,100.00
2019-01-06T20:26:12.951Z,100.00
2019-01-06T20:29:14.951Z,100.00
2019-01-06T20:32:04.843Z,100.00
2019-01-06T20:34:54.201Z,100.00
2019-01-06T20:37:47.937Z,100.00
2019-01-06T20:40:38.067Z,100.00
2019-01-06T20:43:46.278Z,100.00
2019-01-06T20:46:34.880Z,100.00
2019-01-06T20:49:37.106Z,100.00
2019-01-06T20:52:30.437Z,100.00
2019-01-06T20:55:26.639Z,100.00
2019-01-06T20:58:31.309Z,100.00
2019-01-06T21:01:20.279Z,100.00
2019-01-06T21:04:28.739Z,100.00
2019-01-06T21:07:25.177Z,100.00
2019-01-06T21:10:14.344Z,100.00
2019-01-06T21:13:19.501Z,100.00
2019-01-06T21:16:13.042Z,100.00
2019-01-06T21:19:09.290Z,100.00
2019-01-06T21:22:08.322Z,100.00
2019-01-06T21:24:57.260Z,100.00
2019-01-06T21:27:50.520Z,100.00
2019-01-06T21:30:39.601Z,100.00
2019-01-06T21:33:38.070Z,100.00
2019-01-06T21:36:28.347Z,100.00
2019-01-06T21:39:27.869Z,100.00
2019-01-06T21:42:27.257Z,100.00
2019-01-06T21:45:17.588Z,100.00
2019-01-06T21:48:13.839Z,100.00
2019-01-06T21:51:16.329Z,100.00
2019-01-06T21:54:10.768Z,100.00
2019-01-06T21:57:06.691Z,100.00
2019-01-06T21:59:55.529Z,100.00
2019-01-06T22:02:45.260Z,100.00
2019-01-06T22:05:43.597Z,100.00
2019-01-06T22:08:32.655Z,100.00
2019-01-06T22:11:31.761Z,100.00
2019-01-06T22:14:28.259Z,100.00
2019-01-06T22:17:35.297Z,100.00
2019-01-06T22:20:24.500Z,100.00
2019-01-06T22:23:23.711Z,100.00
2019-01-06T22:26:28.921Z,100.00
2019-01-06T22:29:22.647Z,100.00
2019-01-06T22:32:14.167Z,100.00
2019-01-06T22:35:03.115Z,100.00
2019-01-06T22:38:05.520Z,100.00
2019-01-06T22:41:01.558Z,100.00
2019-01-06T22:43:50.354Z,100.00
2019-01-06T22:46:41.966Z,100.00
2019-01-06T22:49:32.317Z,100.00
2019-01-06T22:52:21.100Z,100.00
2019-01-06T22:55:10.096Z,100.00
2019-01-06T22:58:00.514Z,100.00
2019-01-06T23:01:01.129Z,100.00
2019-01-06T23:04:09.494Z,100.00
2019-01-06T23:07:05.716Z,100.00
2019-01-06T23:10:05.130Z,100.00
2019-01-06T23:12:54.079Z,100.00
2019-01-06T23:15:59.281Z,100.00
2019-01-06T23:18:49.656Z,100.00
2019-01-06T23:21:42.499Z,100.00
2019-01-06T23:24:31.424Z,100.00
2019-01-06T23:27:34.558Z,100.00
2019-01-06T23:30:24.259Z,100.00
2019-01-06T23:33:13.232Z,100.00
2019-01-06T23:36:02.170Z,100.00
2019-01-06T23:38:51.176Z,100.00
2019-01-06T23:41:40.304Z,100.00
2019-01-06T23:44:33.619Z,100.00
2019-01-06T23:47:15.595Z,100.00
2019-01-06T23:49:56.451Z,100.00
2019-01-06T23:52:45.338Z,100.00
2019-01-06T23:55:47.624Z,100.00
2019-01-06T23:58:56.297Z,100.00
